Time;durP1;ratioP1;P1;durP2;ratioP2;P2;SDS_P1;SDS_P2;PMS_P1;PMS_P2;Temp;Humidity;BMP_temperature;BMP_pressure;BME280_temperature;BME280_humidity;BME280_pressure;Samples;Min_cycle;Max_cycle;Signal;HPM_P1;HPM_P2
2022/04/20 00:01:24;;;;;;;7.00;2.95;;;;;;;10.50;44.57;99373.94;4948645;28;20047;-65
2022/04/20 00:03:50;;;;;;;4.32;2.33;;;;;;;10.47;44.45;99366.19;4951423;28;20814;-65
2022/04/20 00:06:15;;;;;;;3.58;2.78;;;;;;;10.48;44.50;99367.03;4950516;28;20206;-63
2022/04/20 00:08:41;;;;;;;7.97;2.40;;;;;;;10.48;44.96;99369.69;4950303;28;20044;-65
2022/04/20 00:11:07;;;;;;;3.30;2.08;;;;;;;10.47;44.56;99360.94;4949009;28;20043;-64
2022/04/20 00:13:33;;;;;;;4.00;2.45;;;;;;;10.47;44.51;99362.72;4951131;28;20675;-64
2022/04/20 00:15:59;;;;;;;2.83;1.88;;;;;;;10.47;44.23;99362.72;4952383;28;20126;-64
2022/04/20 00:18:24;;;;;;;7.03;2.47;;;;;;;10.48;44.38;99361.78;4953414;28;20487;-63
2022/04/20 00:20:49;;;;;;;3.58;2.00;;;;;;;10.44;43.82;99350.56;4953857;28;20117;-64
2022/04/20 00:23:14;;;;;;;3.70;2.20;;;;;;;10.43;44.21;99359.38;4953042;28;20043;-63
2022/04/20 00:25:40;;;;;;;3.05;1.98;;;;;;;10.41;44.21;99361.28;4953467;28;20447;-63
2022/04/20 00:28:05;;;;;;;3.63;2.00;;;;;;;10.40;43.67;99361.34;4953346;28;20035;-65
2022/04/20 00:30:31;;;;;;;5.63;1.92;;;;;;;10.39;43.72;99365.78;4951909;28;20043;-66
2022/04/20 00:32:56;;;;;;;6.25;3.05;;;;;;;10.40;44.15;99359.56;4952751;28;20082;-65
2022/04/20 00:35:22;;;;;;;2.90;1.85;;;;;;;10.41;43.53;99369.19;4953598;28;20069;-66
2022/04/20 00:37:48;;;;;;;3.22;2.30;;;;;;;10.40;43.38;99375.38;4951540;28;20031;-65
2022/04/20 00:40:13;;;;;;;2.67;1.60;;;;;;;10.41;43.59;99368.31;4953143;28;20070;-66
2022/04/20 00:42:40;;;;;;;4.35;2.20;;;;;;;10.42;43.26;99380.56;4952062;28;20130;-64
2022/04/20 00:45:08;;;;;;;4.75;1.90;;;;;;;10.42;43.63;99368.25;4952761;28;20031;-65
2022/04/20 00:47:39;;;;;;;3.65;2.05;;;;;;;10.42;43.40;99370.03;4952750;28;20039;-66
2022/04/20 00:50:06;;;;;;;4.90;2.10;;;;;;;10.42;43.32;99376.16;4951350;28;20043;-66
2022/04/20 00:52:32;;;;;;;6.68;2.38;;;;;;;10.43;43.87;99371.72;4952196;28;20040;-66
2022/04/20 00:54:58;;;;;;;3.75;1.90;;;;;;;10.41;43.35;99379.72;4952876;28;20039;-66
2022/04/20 00:57:24;;;;;;;5.80;2.53;;;;;;;10.40;43.17;99383.28;4952548;28;20051;-66
2022/04/20 00:59:51;;;;;;;3.50;1.55;;;;;;;10.38;43.62;99377.25;4951331;28;20476;-66
2022/04/20 01:02:17;;;;;;;2.70;1.77;;;;;;;10.38;43.43;99389.56;4945335;28;20043;-66
2022/04/20 01:04:42;;;;;;;4.05;1.80;;;;;;;10.36;43.78;99383.53;4952878;28;20534;-65
2022/04/20 01:07:12;;;;;;;3.65;1.95;;;;;;;10.34;43.21;99386.28;4953076;28;20106;-65
2022/04/20 01:09:41;;;;;;;4.57;2.10;;;;;;;10.31;43.22;99392.56;4952787;28;20510;-65
2022/04/20 01:12:07;;;;;;;4.10;2.92;;;;;;;10.30;43.97;99385.56;4951344;28;20047;-65
2022/04/20 01:14:33;;;;;;;3.88;2.95;;;;;;;10.27;43.60;99382.22;4952218;28;20086;-65
2022/04/20 01:16:59;;;;;;;4.20;2.40;;;;;;;10.22;43.30;99381.63;4951753;28;20035;-65
2022/04/20 01:19:34;;;;;;;5.22;2.67;;;;;;;10.22;43.82;99379.00;4951940;28;20039;-66
2022/04/20 01:22:01;;;;;;;5.30;3.25;;;;;;;10.18;43.74;99383.56;4951316;28;20170;-64
2022/04/20 01:24:26;;;;;;;4.45;2.47;;;;;;;10.17;43.67;99379.25;4951495;28;20035;-66
2022/04/20 01:26:52;;;;;;;4.70;2.38;;;;;;;10.13;44.04;99382.13;4951516;28;20042;-65
2022/04/20 01:29:18;;;;;;;3.72;2.70;;;;;;;10.07;43.73;99385.94;4951830;28;20563;-66
2022/04/20 01:31:43;;;;;;;3.20;2.40;;;;;;;10.04;43.68;99379.06;4951571;28;20431;-66
2022/04/20 01:34:09;;;;;;;5.88;2.58;;;;;;;10.03;43.77;99379.13;4952566;28;20118;-65
2022/04/20 01:36:34;;;;;;;5.57;2.20;;;;;;;9.97;43.83;99382.06;4952323;28;20086;-65
2022/04/20 01:38:59;;;;;;;6.15;2.42;;;;;;;9.92;44.50;99381.47;4952160;28;20043;-65
2022/04/20 01:41:25;;;;;;;3.60;2.15;;;;;;;9.89;43.99;99379.84;4950616;28;20047;-64
2022/04/20 01:43:50;;;;;;;3.33;2.22;;;;;;;9.89;43.92;99383.38;4951398;28;20106;-64
2022/04/20 01:46:15;;;;;;;3.53;2.30;;;;;;;9.85;44.99;99373.91;4952158;28;20035;-65
2022/04/20 01:48:41;;;;;;;8.00;2.25;;;;;;;9.85;44.55;99379.19;4952393;28;20035;-64
2022/04/20 01:53:50;;;;;;;5.07;2.20;;;;;;;9.79;44.73;99373.38;4952158;28;20086;-64
2022/04/20 01:56:15;;;;;;;5.05;2.17;;;;;;;9.76;45.03;99378.81;4951066;28;20043;-65
2022/04/20 01:58:41;;;;;;;4.97;2.53;;;;;;;9.75;44.40;99382.38;4952178;28;20035;-64
2022/04/20 02:02:34;;;;;;;3.50;2.40;;;;;;;9.71;44.28;99389.56;4951629;28;20039;-65
2022/04/20 02:03:51;;;;;;;7.03;2.33;;;;;;;9.66;44.82;99387.19;4952032;28;20063;-67
2022/04/20 02:06:17;;;;;;;3.10;1.70;;;;;;;9.62;44.73;99377.75;4952484;28;20055;-64
2022/04/20 02:08:42;;;;;;;3.78;2.25;;;;;;;9.60;45.01;99390.16;4949678;28;20031;-65
2022/04/20 02:11:07;;;;;;;3.85;2.22;;;;;;;9.52;44.99;99387.03;4950909;28;20098;-64
2022/04/20 02:13:33;;;;;;;4.07;2.17;;;;;;;9.50;45.58;99383.66;4951929;28;20480;-65
2022/04/20 02:15:58;;;;;;;2.85;2.55;;;;;;;9.45;45.19;99380.38;4951626;28;20050;-67
2022/04/20 02:18:24;;;;;;;6.75;2.20;;;;;;;9.42;45.41;99391.06;4951396;28;20066;-65
2022/04/20 02:20:49;;;;;;;3.65;1.75;;;;;;;9.36;45.32;99386.97;4951058;28;20134;-65
2022/04/20 02:23:14;;;;;;;4.60;2.72;;;;;;;9.30;45.68;99381.16;4950892;28;20148;-66
2022/04/20 02:25:40;;;;;;;4.25;2.30;;;;;;;9.23;46.06;99381.50;4951839;28;20032;-64
2022/04/20 02:28:05;;;;;;;4.72;2.33;;;;;;;9.18;46.06;99380.88;4951274;28;20043;-65
2022/04/20 02:30:30;;;;;;;4.82;2.08;;;;;;;9.14;46.73;99381.94;4950627;28;20042;-65
2022/04/20 02:32:56;;;;;;;6.90;2.90;;;;;;;9.09;47.74;99389.22;4950475;28;20081;-64
2022/04/20 02:35:21;;;;;;;5.03;2.45;;;;;;;8.95;47.03;99386.41;4950814;28;20122;-64
2022/04/20 02:37:46;;;;;;;3.25;2.13;;;;;;;8.93;47.80;99388.25;4951077;28;20066;-66
2022/04/20 02:40:12;;;;;;;17.23;2.50;;;;;;;8.88;47.53;99385.84;4950941;28;20027;-65
2022/04/20 02:42:37;;;;;;;3.35;2.30;;;;;;;8.83;48.07;99393.09;4950639;28;20035;-65
2022/04/20 02:45:03;;;;;;;3.50;2.03;;;;;;;8.73;50.09;99395.31;4950739;28;20090;-64
2022/04/20 02:47:28;;;;;;;10.52;2.65;;;;;;;8.68;49.42;99399.09;4950946;28;20061;-65
2022/04/20 02:49:53;;;;;;;3.28;2.30;;;;;;;8.59;49.04;99398.63;4950914;28;20050;-65
2022/04/20 02:52:19;;;;;;;6.82;2.67;;;;;;;8.54;50.10;99398.00;4950414;28;20031;-64
2022/04/20 02:54:44;;;;;;;3.78;2.60;;;;;;;8.43;51.09;99404.66;4953568;28;20036;-64
2022/04/20 02:57:09;;;;;;;6.40;2.67;;;;;;;8.36;50.96;99394.41;4955488;28;20122;-66
2022/04/20 02:59:34;;;;;;;4.18;2.58;;;;;;;8.34;50.58;99401.53;4954837;28;20046;-64
2022/04/20 03:02:00;;;;;;;7.20;2.63;;;;;;;8.30;50.54;99399.94;4954090;28;21384;-64
2022/04/20 03:04:25;;;;;;;6.13;2.08;;;;;;;8.16;51.72;99394.47;4954769;28;20446;-65
2022/04/20 03:06:50;;;;;;;5.40;2.35;;;;;;;8.19;52.68;99399.56;4954810;28;20035;-66
2022/04/20 03:09:16;;;;;;;3.75;2.33;;;;;;;8.16;51.07;99399.72;4954763;28;20519;-65
2022/04/20 03:11:42;;;;;;;4.18;2.47;;;;;;;8.07;51.96;99410.63;4954123;28;20047;-64
2022/04/20 03:14:08;;;;;;;3.88;2.70;;;;;;;8.09;50.76;99412.28;4955174;28;20403;-64
2022/04/20 03:16:33;;;;;;;4.30;2.47;;;;;;;8.06;51.08;99409.78;4954977;28;20035;-67
2022/04/20 03:18:59;;;;;;;4.63;2.05;;;;;;;8.09;50.35;99408.81;4954667;28;20035;-66
2022/04/20 03:21:24;;;;;;;3.17;2.22;;;;;;;8.08;50.41;99405.34;4954136;28;20035;-66
2022/04/20 03:23:49;;;;;;;4.00;2.63;;;;;;;8.10;49.83;99413.16;4954849;28;20126;-65
2022/04/20 03:26:15;;;;;;;6.13;2.70;;;;;;;8.09;49.21;99408.81;4954679;28;20433;-64
2022/04/20 03:28:41;;;;;;;3.95;2.22;;;;;;;8.10;50.26;99414.00;4954958;28;20123;-67
2022/04/20 03:31:06;;;;;;;10.35;2.58;;;;;;;8.10;50.17;99413.16;4953471;28;20130;-65
2022/04/20 03:33:32;;;;;;;5.25;3.10;;;;;;;8.09;49.46;99411.44;4954159;28;20101;-63
2022/04/20 03:35:57;;;;;;;6.25;2.53;;;;;;;8.10;49.50;99419.25;4954152;28;20039;-66
2022/04/20 03:38:23;;;;;;;8.38;2.40;;;;;;;8.12;49.43;99420.03;4952753;28;20031;-66
2022/04/20 03:40:49;;;;;;;3.58;2.25;;;;;;;8.12;49.57;99421.78;4953924;28;20115;-66
2022/04/20 03:43:14;;;;;;;6.07;2.25;;;;;;;8.10;49.20;99424.50;4953603;28;20035;-65
2022/04/20 03:45:39;;;;;;;3.42;2.20;;;;;;;8.09;49.37;99430.66;4954019;28;20086;-65
2022/04/20 03:48:05;;;;;;;5.03;2.67;;;;;;;8.12;49.65;99432.28;4968516;28;20086;-65
2022/04/20 03:50:31;;;;;;;5.53;2.58;;;;;;;8.11;49.42;99435.84;4953449;28;20039;-65
2022/04/20 03:52:56;;;;;;;5.75;2.80;;;;;;;8.08;51.44;99438.63;4953550;28;20479;-66
2022/04/20 03:55:21;;;;;;;5.28;2.75;;;;;;;7.94;51.79;99437.44;4953483;28;20477;-66
2022/04/20 03:57:46;;;;;;;5.38;2.95;;;;;;;7.82;52.70;99445.84;4952343;28;20031;-65
2022/04/20 04:00:12;;;;;;;7.57;2.88;;;;;;;7.74;52.62;99440.09;4953484;28;20036;-65
2022/04/20 04:02:38;;;;;;;9.10;4.00;;;;;;;7.76;52.19;99440.88;4953432;28;20035;-66
2022/04/20 04:05:03;;;;;;;3.47;2.20;;;;;;;7.77;52.44;99433.84;4952733;28;20495;-65
2022/04/20 04:07:28;;;;;;;5.53;2.42;;;;;;;7.78;51.28;99441.66;4952534;28;20083;-66
2022/04/20 04:09:54;;;;;;;4.22;2.58;;;;;;;7.80;51.13;99446.81;4953313;28;20527;-66
2022/04/20 04:12:23;;;;;;;5.22;2.50;;;;;;;7.77;51.00;99444.34;4952851;28;20051;-65
2022/04/20 04:14:49;;;;;;;4.22;2.08;;;;;;;7.76;50.38;99448.75;4953763;28;20388;-66
2022/04/20 04:17:17;;;;;;;5.75;2.65;;;;;;;7.76;50.43;99446.13;4953451;28;20039;-66
2022/04/20 04:19:42;;;;;;;9.73;2.75;;;;;;;7.76;50.72;99453.16;4953499;28;20035;-65
2022/04/20 04:22:08;;;;;;;4.15;2.67;;;;;;;7.75;50.54;99454.91;4953106;28;20054;-64
2022/04/20 04:24:36;;;;;;;3.83;2.53;;;;;;;7.73;50.48;99457.59;4953537;28;20114;-65
2022/04/20 04:27:03;;;;;;;5.75;2.97;;;;;;;7.72;51.56;99455.03;4953166;28;20039;-65
2022/04/20 04:29:31;;;;;;;4.88;2.42;;;;;;;7.70;52.33;99463.00;4952964;28;20035;-63
2022/04/20 04:31:56;;;;;;;7.63;2.65;;;;;;;7.64;51.55;99475.50;4952738;28;20131;-66
2022/04/20 04:34:21;;;;;;;6.68;3.85;;;;;;;7.56;52.38;99477.59;4954631;28;20126;-65
2022/04/20 04:36:47;;;;;;;4.72;2.65;;;;;;;7.50;53.27;99479.53;4954016;28;20509;-65
2022/04/20 04:39:14;;;;;;;3.80;3.10;;;;;;;7.45;54.15;99485.91;4953683;28;20051;-64
2022/04/20 04:41:42;;;;;;;4.88;2.88;;;;;;;7.36;55.47;99483.66;4953150;28;20062;-64
2022/04/20 04:44:08;;;;;;;3.92;2.53;;;;;;;7.24;55.59;99485.03;4953828;28;20031;-65
2022/04/20 04:49:17;;;;;;;6.35;3.38;;;;;;;7.04;56.10;99481.44;4952844;28;20046;-65
2022/04/20 04:51:43;;;;;;;4.10;2.63;;;;;;;6.99;56.64;99482.50;4952497;28;20407;-64
2022/04/20 04:54:09;;;;;;;5.47;3.20;;;;;;;6.93;56.88;99488.84;4953584;28;20039;-65
2022/04/20 04:56:34;;;;;;;6.15;2.65;;;;;;;6.91;57.24;99492.44;4953060;28;20038;-67
2022/04/20 04:59:00;;;;;;;5.93;3.58;;;;;;;6.83;57.76;99492.75;4952864;28;20035;-67
2022/04/20 05:01:25;;;;;;;5.07;3.03;;;;;;;6.77;58.08;99491.22;4952279;28;20455;-66
2022/04/20 05:03:53;;;;;;;7.47;3.05;;;;;;;6.73;58.02;99483.53;4952760;28;20484;-67
2022/04/20 05:06:19;;;;;;;5.63;2.70;;;;;;;6.74;58.79;99488.69;4952594;28;20119;-66
2022/04/20 05:08:44;;;;;;;6.47;2.80;;;;;;;6.75;58.37;99484.34;4952567;28;20114;-66
2022/04/20 05:11:09;;;;;;;15.88;3.75;;;;;;;6.76;58.48;99481.63;4952054;28;20035;-64
2022/04/20 05:13:34;;;;;;;5.90;3.20;;;;;;;6.83;58.31;99482.25;4952282;28;20059;-65
2022/04/20 05:16:00;;;;;;;6.97;3.20;;;;;;;6.92;58.11;99484.53;4952434;28;20094;-65
2022/04/20 05:18:25;;;;;;;7.63;3.45;;;;;;;7.03;58.03;99484.94;4951266;28;20043;-66
2022/04/20 05:20:50;;;;;;;4.93;3.50;;;;;;;7.15;57.48;99482.78;4951954;28;20027;-63
2022/04/20 05:23:16;;;;;;;9.98;3.45;;;;;;;7.28;57.15;99483.97;4951468;28;20031;-65
2022/04/20 05:25:41;;;;;;;7.93;3.90;;;;;;;7.49;56.30;99490.97;4952849;28;20063;-65
2022/04/20 05:28:06;;;;;;;7.72;3.30;;;;;;;7.74;55.64;99495.19;4952917;28;20039;-64
2022/04/20 05:30:32;;;;;;;11.13;5.40;;;;;;;7.92;55.25;99497.00;4954685;28;20406;-63
2022/04/20 05:32:57;;;;;;;6.00;3.10;;;;;;;8.05;54.97;99494.72;4950743;28;20174;-63
2022/04/20 05:35:22;;;;;;;9.90;3.72;;;;;;;8.12;54.43;99495.28;4950825;28;20190;-65
2022/04/20 05:43:32;;;;;;;9.65;3.75;;;;;;;8.55;51.15;99503.94;4949340;29;20043;-65
2022/04/20 05:45:57;;;;;;;8.00;3.90;;;;;;;8.64;50.95;99502.66;4950212;28;20031;-64
2022/04/20 05:48:23;;;;;;;8.38;3.28;;;;;;;8.73;50.45;99507.50;4952303;28;20039;-66
2022/04/20 05:50:48;;;;;;;7.13;3.75;;;;;;;8.93;49.52;99511.81;4951314;28;20043;-65
2022/04/20 05:53:13;;;;;;;8.30;3.85;;;;;;;9.08;49.21;99507.59;4949086;28;20046;-66
2022/04/20 05:55:39;;;;;;;6.03;3.50;;;;;;;9.24;49.54;99508.59;4951210;28;20114;-65
2022/04/20 05:58:04;;;;;;;11.35;3.67;;;;;;;9.38;49.89;99511.41;4952246;28;20114;-64
2022/04/20 06:00:31;;;;;;;7.53;3.65;;;;;;;9.55;49.47;99507.97;4951645;28;20042;-65
2022/04/20 06:02:56;;;;;;;3.75;2.55;;;;;;;9.68;48.66;99506.41;4951317;28;20075;-65
2022/04/20 06:05:22;;;;;;;9.75;2.97;;;;;;;9.94;47.73;99503.38;4935053;28;20035;-64
2022/04/20 06:07:47;;;;;;;9.23;3.42;;;;;;;10.05;46.82;99503.69;4952141;28;20482;-65
2022/04/20 06:10:13;;;;;;;6.53;3.92;;;;;;;10.36;45.48;99502.97;4952170;28;20047;-66
2022/04/20 06:12:39;;;;;;;6.10;3.95;;;;;;;10.52;44.19;99500.38;4952295;28;20039;-65
2022/04/20 06:15:06;;;;;;;7.15;2.88;;;;;;;10.75;44.44;99504.38;4952480;28;20051;-66
2022/04/20 06:17:31;;;;;;;6.00;3.78;;;;;;;11.03;43.07;99508.16;4952900;28;20419;-64
2022/04/20 06:19:57;;;;;;;8.40;3.88;;;;;;;11.16;42.86;99511.81;4952739;28;20035;-65
2022/04/20 06:22:22;;;;;;;5.72;3.30;;;;;;;11.31;41.84;99510.94;4952023;28;20484;-65
2022/04/20 06:24:48;;;;;;;6.57;3.72;;;;;;;11.43;41.28;99511.19;4951879;28;20039;-64
2022/04/20 06:27:13;;;;;;;8.18;3.42;;;;;;;11.43;41.35;99508.56;4950804;28;20038;-64
2022/04/20 06:29:39;;;;;;;13.35;4.75;;;;;;;11.64;41.70;99523.16;4957450;28;20031;-65
2022/04/20 06:32:05;;;;;;;10.50;4.00;;;;;;;12.13;40.48;99512.34;4957369;28;20063;-65
2022/04/20 06:34:31;;;;;;;7.88;4.05;;;;;;;12.41;40.08;99511.53;4959525;28;20495;-64
2022/04/20 06:36:56;;;;;;;3.55;2.72;;;;;;;12.80;38.41;99509.19;4957729;28;20035;-65
2022/04/20 06:39:21;;;;;;;5.70;3.42;;;;;;;13.01;38.71;99506.97;4959135;28;20447;-65
2022/04/20 06:41:47;;;;;;;8.40;3.78;;;;;;;13.36;37.86;99502.06;4958893;28;20559;-65
2022/04/20 06:44:12;;;;;;;7.38;3.40;;;;;;;13.76;36.60;99507.41;4959570;28;20039;-65
2022/04/20 06:46:37;;;;;;;7.45;3.55;;;;;;;13.93;36.85;99514.19;4960110;28;20043;-64
2022/04/20 06:49:03;;;;;;;4.15;3.55;;;;;;;13.94;36.35;99518.56;4959922;28;20035;-65
2022/04/20 06:58:31;;;;;;;7.05;3.33;;;;;;;13.61;36.19;99511.91;4958002;28;20094;-65
2022/04/20 06:59:41;;;;;;;6.05;3.35;;;;;;;14.54;34.95;99503.84;4954591;28;20089;-65
2022/04/20 07:02:06;;;;;;;5.18;3.38;;;;;;;14.49;34.90;99514.75;4956751;28;20043;-64
2022/04/20 07:04:31;;;;;;;7.43;4.32;;;;;;;14.47;34.46;99507.84;4948602;28;20138;-65
2022/04/20 07:06:57;;;;;;;4.50;3.40;;;;;;;14.55;34.53;99505.56;4947015;28;20031;-65
2022/04/20 07:09:22;;;;;;;7.97;3.92;;;;;;;14.91;34.06;99504.72;4946817;28;20047;-64
2022/04/20 07:11:48;;;;;;;6.93;3.40;;;;;;;15.33;33.05;99501.72;4946104;28;20553;-65
2022/04/20 07:14:13;;;;;;;5.65;2.90;;;;;;;15.60;32.36;99499.72;4945852;28;20126;-65
2022/04/20 07:16:39;;;;;;;7.90;3.47;;;;;;;15.94;31.68;99499.00;4951483;28;20447;-65
2022/04/20 07:19:04;;;;;;;8.55;4.35;;;;;;;16.13;31.46;99501.09;4946750;28;20035;-65
2022/04/20 07:21:31;;;;;;;7.43;3.15;;;;;;;16.28;31.51;99500.75;4946298;28;20102;-65
2022/04/20 07:23:56;;;;;;;9.20;3.08;;;;;;;16.22;31.24;99497.72;4946540;28;20031;-65
2022/04/20 07:26:21;;;;;;;7.20;3.92;;;;;;;16.42;31.16;99498.84;4953240;28;20555;-68
2022/04/20 07:28:47;;;;;;;7.68;3.92;;;;;;;16.26;31.50;99499.19;4957310;28;20114;-67
2022/04/20 07:31:12;;;;;;;8.57;3.67;;;;;;;16.26;31.56;99504.50;4951723;28;20495;-68
2022/04/20 07:33:37;;;;;;;10.55;3.85;;;;;;;16.42;30.88;99510.34;4947280;28;20043;-68
2022/04/20 07:36:03;;;;;;;11.35;3.42;;;;;;;16.38;30.87;99498.22;4946406;28;20032;-68
2022/04/20 07:38:28;;;;;;;7.57;3.55;;;;;;;16.82;30.58;99507.22;4945848;28;20050;-68
2022/04/20 07:40:54;;;;;;;6.50;3.03;;;;;;;17.11;29.79;99506.72;4941946;28;20038;-68
2022/04/20 07:43:19;;;;;;;8.52;4.18;;;;;;;17.13;30.27;99499.41;4947967;28;20051;-68
2022/04/20 07:45:44;;;;;;;7.47;3.60;;;;;;;17.29;29.19;99507.88;4948371;28;20094;-70
2022/04/20 07:48:10;;;;;;;6.05;2.58;;;;;;;17.31;28.36;99508.59;4952241;28;20045;-69
2022/04/20 07:50:36;;;;;;;4.80;3.10;;;;;;;17.57;28.25;99505.59;4953204;28;20126;-67
2022/04/20 07:53:04;;;;;;;7.80;2.80;;;;;;;17.48;27.63;99517.88;4947423;28;20464;-67
2022/04/20 07:55:31;;;;;;;8.20;2.53;;;;;;;17.47;27.29;99512.66;4938421;28;20505;-67
2022/04/20 07:57:59;;;;;;;8.38;3.15;;;;;;;17.48;27.26;99507.22;4945822;28;20091;-68
2022/04/20 08:00:25;;;;;;;9.15;2.75;;;;;;;17.85;26.34;99512.19;4950503;28;20127;-67
2022/04/20 08:02:51;;;;;;;8.45;2.83;;;;;;;17.92;26.84;99510.69;4952906;28;20110;-68
2022/04/20 08:05:19;;;;;;;5.93;2.40;;;;;;;18.07;26.70;99507.72;4937448;28;20131;-67
2022/04/20 08:07:45;;;;;;;3.72;2.53;;;;;;;18.14;26.41;99515.06;4932314;28;20588;-67
2022/04/20 08:10:12;;;;;;;4.38;2.70;;;;;;;18.04;26.12;99511.50;4935222;28;20040;-69
2022/04/20 08:12:43;;;;;;;4.03;2.40;;;;;;;17.99;26.45;99511.00;4934661;28;20043;-67
2022/04/20 08:15:09;;;;;;;6.53;3.47;;;;;;;17.75;27.09;99505.91;4935397;28;20118;-68
2022/04/20 08:17:35;;;;;;;5.65;3.35;;;;;;;18.12;25.90;99509.00;4934287;28;20090;-73
2022/04/20 08:20:01;;;;;;;5.60;3.05;;;;;;;17.67;26.95;99517.22;4936450;28;20044;-70
2022/04/20 08:22:27;;;;;;;3.60;2.78;;;;;;;17.66;27.22;99512.84;4937418;28;20040;-70
2022/04/20 08:24:53;;;;;;;6.25;3.08;;;;;;;17.55;27.22;99510.22;4952652;28;20387;-68
2022/04/20 08:27:20;;;;;;;6.80;2.67;;;;;;;17.52;27.04;99518.44;4951769;28;20032;-67
2022/04/20 08:29:47;;;;;;;12.77;3.05;;;;;;;17.53;26.83;99514.84;4952944;28;20039;-68
2022/04/20 08:32:13;;;;;;;14.63;3.40;;;;;;;17.44;27.51;99515.59;4948113;28;20161;-60
2022/04/20 08:34:39;;;;;;;5.57;3.17;;;;;;;17.78;28.86;99524.31;4941998;28;20055;-64
2022/04/20 08:37:04;;;;;;;7.82;2.92;;;;;;;18.16;28.91;99521.13;4949515;28;20043;-67
2022/04/20 08:39:29;;;;;;;5.45;3.35;;;;;;;18.42;25.60;99526.03;4947870;28;20118;-63
2022/04/20 08:41:55;;;;;;;37.80;7.60;;;;;;;18.69;27.66;99521.97;4947802;28;20126;-59
2022/04/20 08:44:27;;;;;;;3.78;2.63;;;;;;;18.80;25.08;99527.22;4948371;28;20041;-65
2022/04/20 08:46:57;;;;;;;3.67;2.30;;;;;;;18.44;24.74;99529.41;4946870;28;20039;-68
2022/04/20 08:49:22;;;;;;;6.53;3.00;;;;;;;18.09;25.35;99517.28;4937864;28;20065;-70
2022/04/20 08:54:36;;;;;;;9.75;2.67;;;;;;;18.07;25.03;99521.91;4929233;28;20598;-68
2022/04/20 08:57:20;;;;;;;3.33;2.60;;;;;;;17.95;25.26;99529.09;4928967;28;20126;-69
2022/04/20 08:59:49;;;;;;;3.67;2.45;;;;;;;17.68;25.44;99524.22;4928503;28;20040;-68
2022/04/20 09:02:19;;;;;;;7.32;3.65;;;;;;;17.72;25.49;99520.34;4928097;28;20126;-69
2022/04/20 09:04:45;;;;;;;5.88;3.08;;;;;;;17.62;25.82;99532.72;4928234;28;20510;-69
2022/04/20 09:07:14;;;;;;;7.10;2.50;;;;;;;17.87;25.96;99525.38;4929649;28;20122;-67
2022/04/20 09:09:39;;;;;;;6.45;2.78;;;;;;;17.98;25.52;99517.31;4929167;28;20032;-67
2022/04/20 09:12:16;;;;;;;6.80;2.95;;;;;;;18.03;25.58;99525.78;4928188;28;20050;-65
2022/04/20 09:14:44;;;;;;;5.68;3.38;;;;;;;18.07;25.50;99524.56;4928181;28;20035;-66
2022/04/20 09:17:18;;;;;;;4.78;2.80;;;;;;;18.06;25.51;99524.69;4931239;28;20046;-65
2022/04/20 09:19:54;;;;;;;5.15;3.70;;;;;;;18.01;25.58;99523.22;4928262;28;20023;-66
2022/04/20 09:22:27;;;;;;;5.90;3.10;;;;;;;18.15;25.38;99514.06;4927005;28;20039;-68
2022/04/20 09:24:59;;;;;;;5.97;2.88;;;;;;;18.17;24.91;99521.97;4927156;28;20497;-69
2022/04/20 09:27:26;;;;;;;6.18;3.00;;;;;;;18.60;23.94;99518.25;4946603;28;20081;-66
2022/04/20 09:29:55;;;;;;;10.13;2.95;;;;;;;19.02;23.72;99507.47;4946705;28;20039;-67
2022/04/20 09:32:31;;;;;;;16.13;3.70;;;;;;;19.31;23.82;99507.53;4945894;28;20067;-69
2022/04/20 09:34:58;;;;;;;6.60;3.35;;;;;;;19.65;23.36;99501.81;4947178;28;20086;-69
2022/04/20 09:37:24;;;;;;;8.27;3.47;;;;;;;20.10;23.21;99504.75;4946665;28;20667;-69
2022/04/20 09:39:50;;;;;;;3.75;2.85;;;;;;;20.86;22.53;99487.75;4929125;29;20036;-69
2022/04/20 09:42:16;;;;;;;4.03;2.72;;;;;;;21.81;21.25;99485.59;4935583;28;20388;-69
2022/04/20 09:44:54;;;;;;;4.85;3.22;;;;;;;21.70;21.11;99488.50;4946825;28;20117;-68
2022/04/20 09:50:10;;;;;;;6.05;2.95;;;;;;;22.44;20.37;99482.69;4946423;28;20073;-69
2022/04/20 09:52:41;;;;;;;6.05;3.28;;;;;;;22.62;20.10;99481.75;4946239;28;20146;-69
2022/04/20 09:55:08;;;;;;;5.20;3.25;;;;;;;22.88;20.05;99479.03;4945959;28;20086;-69
2022/04/20 09:57:36;;;;;;;9.93;3.05;;;;;;;22.70;19.13;99481.81;4946843;28;20034;-69
2022/04/20 10:00:10;;;;;;;3.72;2.83;;;;;;;22.41;19.44;99491.06;4944411;28;20036;-68
2022/04/20 10:02:50;;;;;;;4.93;2.97;;;;;;;22.48;19.52;99485.91;4946235;28;20043;-69
2022/04/20 10:05:17;;;;;;;10.02;3.63;;;;;;;22.15;19.74;99488.38;4946647;28;20043;-69
2022/04/20 10:07:43;;;;;;;12.05;2.97;;;;;;;22.09;20.06;99503.25;4947150;28;20157;-69
2022/04/20 10:10:09;;;;;;;4.78;3.17;;;;;;;21.79;20.17;99499.16;4946904;28;20045;-69
2022/04/20 10:12:38;;;;;;;5.13;3.03;;;;;;;22.29;19.77;99486.97;4946389;28;20122;-71
2022/04/20 10:17:50;;;;;;;10.30;3.45;;;;;;;22.64;19.85;99486.00;4946082;28;20037;-70
2022/04/20 10:20:16;;;;;;;4.43;2.70;;;;;;;22.74;19.82;99477.78;4945860;28;20815;-70
2022/04/20 10:22:43;;;;;;;9.13;3.85;;;;;;;22.78;20.02;99481.84;4945669;28;20487;-69
2022/04/20 10:25:10;;;;;;;8.63;3.50;;;;;;;22.67;20.01;99483.00;4945815;28;20038;-68
2022/04/20 10:27:51;;;;;;;8.40;3.17;;;;;;;23.18;19.73;99476.81;4943533;28;20043;-72
2022/04/20 10:30:22;;;;;;;4.97;2.83;;;;;;;23.34;19.30;99464.25;4946406;28;20035;-69
2022/04/20 10:32:58;;;;;;;4.70;3.00;;;;;;;23.04;19.36;99470.22;4946060;28;20476;-69
2022/04/20 10:35:23;;;;;;;12.05;3.60;;;;;;;22.40;19.93;99467.91;4945862;28;20070;-68
2022/04/20 10:38:07;;;;;;;6.30;3.17;;;;;;;22.81;19.86;99459.19;4946761;28;20059;-71
2022/04/20 10:40:33;;;;;;;11.40;2.85;;;;;;;22.60;19.93;99465.81;4946935;28;20555;-69
2022/04/20 10:43:20;;;;;;;7.65;2.90;;;;;;;22.32;19.32;99472.38;4946528;28;20046;-68
2022/04/20 10:46:02;;;;;;;12.52;3.50;;;;;;;21.99;19.81;99467.59;4946261;28;20047;-69
2022/04/20 10:49:07;;;;;;;6.15;2.95;;;;;;;20.99;20.27;99456.09;4946125;28;20050;-70
2022/04/20 10:51:37;;;;;;;3.97;2.72;;;;;;;20.55;21.01;99449.69;4945587;28;20067;-69
2022/04/20 10:54:18;;;;;;;3.47;2.30;;;;;;;20.45;21.08;99446.19;4946092;28;20656;-67
2022/04/20 10:57:07;;;;;;;5.05;3.03;;;;;;;20.00;21.37;99447.72;4946295;28;20130;-68
2022/04/20 10:59:32;;;;;;;5.35;2.72;;;;;;;19.39;21.90;99450.72;4945837;28;20035;-68
2022/04/20 11:02:04;;;;;;;6.47;2.88;;;;;;;18.89;22.68;99456.97;4945324;28;20039;-68
2022/04/20 11:04:42;;;;;;;10.02;3.63;;;;;;;18.86;22.95;99449.22;4946022;28;20483;-68
2022/04/20 11:07:07;;;;;;;3.88;2.33;;;;;;;18.67;23.73;99440.13;4944819;28;20035;-67
2022/04/20 11:09:52;;;;;;;6.47;2.50;;;;;;;18.37;23.63;99434.84;4927227;28;26394;-69
2022/04/20 11:21:06;;;;;;;4.35;2.75;;;;;;;17.49;25.40;99439.59;4949114;28;20050;-68
2022/04/20 11:23:58;;;;;;;6.68;3.17;;;;;;;17.51;24.83;99445.66;4949878;28;20043;-69
2022/04/20 11:26:28;;;;;;;4.60;2.78;;;;;;;17.65;24.73;99433.00;4949397;28;20142;-68
2022/04/20 11:28:59;;;;;;;7.47;3.60;;;;;;;17.80;24.82;99431.72;4949425;28;20047;-68
2022/04/20 11:31:25;;;;;;;6.00;2.97;;;;;;;17.48;25.21;99445.06;4948645;28;20051;-67
2022/04/20 11:33:53;;;;;;;5.38;3.00;;;;;;;17.49;25.30;99442.25;4946315;28;20074;-67
2022/04/20 11:36:20;;;;;;;5.13;2.83;;;;;;;17.43;25.68;99434.78;4948558;28;20043;-68
2022/04/20 11:38:48;;;;;;;9.27;4.43;;;;;;;17.35;25.65;99424.78;4934262;28;20040;-68
2022/04/20 11:41:15;;;;;;;7.35;3.33;;;;;;;16.99;25.96;99423.31;4938978;28;20043;-69
2022/04/20 11:43:41;;;;;;;7.60;3.83;;;;;;;17.02;25.42;99436.38;4950270;28;20451;-68
2022/04/20 11:46:07;;;;;;;6.03;3.05;;;;;;;17.12;25.62;99418.66;4951256;28;20039;-69
2022/04/20 11:48:37;;;;;;;8.68;3.55;;;;;;;17.16;26.35;99416.63;4949906;28;20047;-70
2022/04/20 11:51:07;;;;;;;6.85;3.10;;;;;;;17.21;26.16;99417.06;4950092;28;20138;-68
2022/04/20 11:53:33;;;;;;;4.75;3.35;;;;;;;17.23;25.86;99412.47;4952222;28;20043;-70
2022/04/20 11:56:03;;;;;;;5.05;3.05;;;;;;;17.36;25.71;99412.28;4951733;28;20058;-68
2022/04/20 11:58:31;;;;;;;7.50;3.10;;;;;;;17.46;25.23;99415.88;4943253;28;20070;-69
2022/04/20 12:01:03;;;;;;;8.55;3.00;;;;;;;17.50;25.35;99411.13;4964991;28;20551;-68
2022/04/20 12:03:36;;;;;;;3.90;2.38;;;;;;;17.64;25.26;99394.81;4936610;28;20036;-66
2022/04/20 12:06:06;;;;;;;3.90;2.17;;;;;;;17.59;25.43;99413.00;4938574;28;20039;-70
2022/04/20 12:08:33;;;;;;;5.20;2.60;;;;;;;17.30;25.04;99397.66;4950695;28;20031;-67
2022/04/20 12:11:06;;;;;;;3.97;2.80;;;;;;;17.22;25.78;99393.94;4954155;28;20558;-68